Terminal Aerodrome Forecast
Issued by NWS St Louis, MO

Home | Current Version | Previous Version | Text Only | Print | Product List | Glossary On
Versions: 1 2 3 4 5 6 7 8 9 10 11 12 13 14 15
000
FTUS43 KLSX 231120
TAFCOU
TAF
KCOU 231120Z 2312/2412 29007KT P6SM -SHRA VCTS SCT025CB BKN050
     FM231400 34008KT P6SM VCSH BKN035
     FM231500 35009KT P6SM BKN040
     FM231800 36012KT P6SM SCT120
     FM240100 32005KT P6SM FEW250=

USA.gov is the U.S. government's official web portal to all federal, state and local government web resources and services.